Hazel Crest, Illinois
Current Conditions -  °F | °C
As of 8:15 AM on Monday 20 Oct 2014 (Local Time) from KIGQ Reporting Station
Thunderstorm Thunderstorm  
Wind Chill: 50°   Ceiling: Unl
Heat Index: 50°   Visibility: 10mi
Dew Point: 46°   Wind: 9mph
Humidity: 85%   Direction: 250°WSW
Pressure: 29.84"   Gusts: NA
Location:  41.58°N, 87.69°W
Report Text: KIGQ 201315Z AUTO 25008KT 10SM VCTS CLR 10/08 A2984 RMK AO2 T01000075
Loading
Personal Weather Stations






























Interactive Weather Map
Tropical Storm Tracking
New forecast layout! Learn more

10-Day Weather Forecast

Advertisements
Track Severe Weather on mobile